Time;durP1;ratioP1;P1;durP2;ratioP2;P2;SDS_P1;SDS_P2;PMS_P1;PMS_P2;Temp;Humidity;BMP_temperature;BMP_pressure;BME280_temperature;BME280_humidity;BME280_pressure;Samples;Min_cycle;Max_cycle;Signal;HPM_P1;HPM_P2
2022/06/26 00:00:21;;;;;;;3.00;0.50;;;26.60;99.90;;;;;;4971520;23;20055;-48
2022/06/26 00:02:47;;;;;;;2.42;0.52;;;26.60;99.90;;;;;;4954914;29;20023;-47
2022/06/26 00:05:13;;;;;;;1.27;0.43;;;26.60;99.90;;;;;;4955051;29;20102;-48
2022/06/26 00:07:40;;;;;;;1.58;0.45;;;26.60;99.90;;;;;;4954594;29;20053;-46
2022/06/26 00:10:07;;;;;;;3.35;0.57;;;26.60;99.90;;;;;;4937573;29;20118;-49
2022/06/26 00:12:33;;;;;;;1.57;0.40;;;26.60;99.90;;;;;;4954567;29;20413;-48
2022/06/26 00:14:59;;;;;;;3.23;0.50;;;26.50;99.90;;;;;;4937341;29;20028;-48
2022/06/26 00:17:25;;;;;;;3.17;0.65;;;26.50;99.90;;;;;;4954589;29;20631;-48
2022/06/26 00:19:53;;;;;;;1.63;0.55;;;26.50;99.90;;;;;;4954249;29;20027;-48
2022/06/26 00:22:20;;;;;;;3.50;0.63;;;26.50;99.90;;;;;;4954432;29;20019;-48
2022/06/26 00:24:46;;;;;;;0.63;0.30;;;26.50;99.90;;;;;;4954390;29;20058;-49
2022/06/26 00:27:12;;;;;;;2.58;0.93;;;26.50;99.90;;;;;;4954451;29;20066;-48
2022/06/26 00:29:38;;;;;;;2.00;0.40;;;26.50;99.90;;;;;;4954106;29;20027;-49
2022/06/26 00:32:05;;;;;;;0.80;0.35;;;26.40;99.90;;;;;;4954021;29;20023;-47
2022/06/26 00:34:32;;;;;;;2.03;0.50;;;26.40;99.90;;;;;;4952546;29;20069;-48
2022/06/26 00:36:58;;;;;;;1.25;0.50;;;26.40;99.90;;;;;;4954073;29;20075;-48
2022/06/26 00:39:24;;;;;;;1.77;0.70;;;26.40;99.90;;;;;;4954041;29;20020;-48
2022/06/26 00:41:51;;;;;;;2.17;0.50;;;26.40;99.90;;;;;;4953968;29;20038;-48
2022/06/26 00:44:24;;;;;;;3.92;0.60;;;26.40;99.90;;;;;;4953885;29;20094;-48
2022/06/26 00:46:51;;;;;;;2.15;0.82;;;26.30;99.90;;;;;;4953949;29;20023;-48
2022/06/26 00:49:18;;;;;;;2.13;0.63;;;26.30;99.90;;;;;;4954001;29;20019;-48
2022/06/26 00:51:46;;;;;;;2.78;0.82;;;26.40;99.90;;;;;;4953485;28;20035;-48
2022/06/26 00:54:13;;;;;;;0.85;0.45;;;26.40;99.90;;;;;;4953982;29;20059;-47
2022/06/26 00:56:39;;;;;;;1.73;0.52;;;26.40;99.90;;;;;;4953651;29;20031;-48
2022/06/26 01:01:36;;;;;;;3.72;0.60;;;26.40;99.90;;;;;;4971223;28;20078;-48
2022/06/26 01:04:05;;;;;;;0.95;0.32;;;26.40;99.90;;;;;;4973014;28;20070;-48
2022/06/26 01:06:32;;;;;;;4.05;0.40;;;26.40;99.90;;;;;;4972802;28;20122;-48
2022/06/26 01:08:58;;;;;;;2.40;0.60;;;26.40;99.90;;;;;;4972707;28;20102;-48
2022/06/26 01:11:28;;;;;;;2.83;0.50;;;26.40;99.90;;;;;;4972709;28;20041;-49
2022/06/26 01:13:56;;;;;;;6.07;0.40;;;26.40;99.90;;;;;;4972553;28;20758;-48
2022/06/26 01:16:23;;;;;;;4.63;0.45;;;26.30;99.90;;;;;;4972579;28;20030;-48
2022/06/26 01:18:52;;;;;;;3.95;0.30;;;26.30;99.90;;;;;;4972706;28;20030;-48
2022/06/26 01:21:20;;;;;;;2.28;0.32;;;26.30;99.90;;;;;;4972855;28;20102;-48
2022/06/26 01:23:47;;;;;;;0.40;0.25;;;26.30;99.90;;;;;;4972864;28;20058;-49
2022/06/26 01:26:13;;;;;;;1.27;0.73;;;26.30;99.90;;;;;;4972666;28;20034;-49
2022/06/26 01:28:39;;;;;;;3.30;0.80;;;26.30;99.90;;;;;;4972622;28;20027;-49
2022/06/26 01:31:05;;;;;;;2.45;0.40;;;26.30;99.90;;;;;;4972635;28;20412;-49
2022/06/26 01:33:30;;;;;;;1.17;0.30;;;26.30;99.90;;;;;;4972485;28;20023;-49
2022/06/26 01:35:56;;;;;;;3.55;0.30;;;26.30;99.90;;;;;;4972354;28;20058;-48
2022/06/26 01:38:24;;;;;;;0.80;0.30;;;26.30;99.90;;;;;;4972194;28;20063;-49
2022/06/26 01:40:52;;;;;;;1.60;0.40;;;26.30;99.90;;;;;;4955340;28;20398;-49
2022/06/26 01:43:21;;;;;;;1.45;0.30;;;26.30;99.90;;;;;;4972542;28;20543;-48
2022/06/26 01:45:52;;;;;;;1.38;0.50;;;26.30;99.90;;;;;;4972400;28;20034;-49
2022/06/26 01:48:19;;;;;;;0.63;0.32;;;26.30;99.90;;;;;;4972535;28;20053;-49
2022/06/26 01:50:45;;;;;;;1.00;0.40;;;26.20;99.90;;;;;;4972265;28;20411;-49
2022/06/26 01:53:11;;;;;;;2.00;0.30;;;26.20;99.90;;;;;;4972164;28;20023;-49
2022/06/26 01:55:38;;;;;;;1.63;0.40;;;26.10;99.90;;;;;;4972417;28;20118;-49
2022/06/26 01:58:04;;;;;;;1.52;0.40;;;26.10;99.90;;;;;;4972340;28;20105;-49
2022/06/26 02:00:32;;;;;;;0.50;0.40;;;26.10;99.90;;;;;;4988482;23;20069;-47
2022/06/26 02:02:58;;;;;;;3.60;0.40;;;26.10;99.90;;;;;;4972156;28;20031;-46
2022/06/26 02:05:25;;;;;;;3.55;0.50;;;26.00;99.90;;;;;;4975417;28;20485;-47
2022/06/26 02:07:50;;;;;;;2.40;0.38;;;26.00;99.90;;;;;;4958941;28;20519;-47
2022/06/26 02:15:47;;;;;;;0.45;0.30;;;25.90;99.90;;;;;;4976603;28;20628;-46
2022/06/26 02:18:13;;;;;;;1.85;0.47;;;25.80;99.90;;;;;;4976035;28;20114;-47
2022/06/26 02:20:39;;;;;;;3.65;0.30;;;25.80;99.90;;;;;;4958601;28;20353;-47
2022/06/26 02:23:05;;;;;;;4.80;0.40;;;25.70;99.90;;;;;;4975999;28;20503;-48
2022/06/26 02:25:31;;;;;;;1.00;0.32;;;25.70;99.90;;;;;;4975867;28;20552;-48
2022/06/26 02:27:57;;;;;;;1.50;0.47;;;25.70;99.90;;;;;;4975811;28;20109;-47
2022/06/26 02:30:23;;;;;;;4.00;0.77;;;25.70;99.90;;;;;;4975932;28;20599;-48
2022/06/26 02:32:48;;;;;;;1.63;0.50;;;25.70;99.90;;;;;;4975840;28;20023;-48
2022/06/26 02:35:14;;;;;;;4.85;0.60;;;25.60;99.90;;;;;;4975488;28;20428;-47
2022/06/26 02:37:40;;;;;;;2.53;0.40;;;25.60;99.90;;;;;;4975328;28;20122;-47
2022/06/26 02:40:07;;;;;;;2.03;0.60;;;25.60;99.90;;;;;;4975484;28;20023;-47
2022/06/26 02:42:33;;;;;;;1.92;0.82;;;25.60;99.90;;;;;;4975503;28;20035;-47
2022/06/26 02:44:58;;;;;;;5.50;0.82;;;25.50;99.90;;;;;;4975651;28;20038;-47
2022/06/26 02:47:24;;;;;;;3.58;0.47;;;25.50;99.90;;;;;;4975437;28;20048;-47
2022/06/26 02:49:50;;;;;;;3.90;0.40;;;25.50;99.90;;;;;;4975539;28;20473;-48
2022/06/26 02:52:15;;;;;;;1.05;0.60;;;25.50;99.90;;;;;;4975424;28;20382;-47
2022/06/26 02:54:41;;;;;;;3.92;0.57;;;25.50;99.90;;;;;;4975322;28;20027;-48
2022/06/26 02:57:07;;;;;;;2.60;0.50;;;25.50;99.90;;;;;;4975061;28;20030;-48
2022/06/26 02:59:33;;;;;;;0.98;0.45;;;25.50;99.90;;;;;;4991195;23;20059;-48
2022/06/26 03:01:58;;;;;;;1.05;0.40;;;25.40;99.90;;;;;;4975291;28;20035;-49
2022/06/26 03:04:24;;;;;;;2.72;0.35;;;25.50;99.90;;;;;;4975080;28;20019;-49
2022/06/26 03:06:50;;;;;;;0.65;0.40;;;25.50;99.90;;;;;;4975379;28;20031;-49
2022/06/26 03:09:16;;;;;;;4.30;0.70;;;25.50;99.90;;;;;;4974935;28;20491;-49
2022/06/26 03:11:42;;;;;;;4.05;0.60;;;25.50;99.90;;;;;;4974911;28;20026;-48
2022/06/26 03:14:10;;;;;;;1.10;0.77;;;25.50;99.90;;;;;;4974871;28;20018;-48
2022/06/26 03:16:36;;;;;;;1.80;0.50;;;25.50;99.90;;;;;;4974770;28;20038;-48
2022/06/26 03:19:02;;;;;;;1.85;0.63;;;25.50;99.90;;;;;;4974971;28;20038;-48
2022/06/26 03:21:28;;;;;;;1.50;0.50;;;25.50;99.90;;;;;;4974787;28;20098;-48
2022/06/26 03:24:03;;;;;;;4.57;1.02;;;25.50;99.90;;;;;;4974835;28;20105;-48
2022/06/26 03:26:31;;;;;;;2.97;0.50;;;25.40;99.90;;;;;;4974599;28;20034;-49
2022/06/26 03:28:57;;;;;;;1.58;0.82;;;25.40;99.90;;;;;;4974657;28;20023;-49
2022/06/26 03:31:23;;;;;;;1.52;0.73;;;25.30;99.90;;;;;;4974866;28;20109;-48
2022/06/26 03:33:49;;;;;;;2.00;0.73;;;25.30;99.90;;;;;;4974530;28;20528;-48
2022/06/26 03:36:14;;;;;;;4.38;0.70;;;25.30;99.90;;;;;;4957044;28;20476;-48
2022/06/26 03:38:40;;;;;;;1.85;0.68;;;25.40;99.90;;;;;;4974579;28;20042;-49
2022/06/26 03:41:06;;;;;;;1.42;0.65;;;25.30;99.90;;;;;;4974465;28;20333;-49
2022/06/26 03:43:32;;;;;;;1.42;0.63;;;25.30;99.90;;;;;;4957252;28;20081;-49
2022/06/26 03:45:58;;;;;;;1.40;0.65;;;25.30;99.90;;;;;;4974283;28;20106;-49
2022/06/26 03:48:23;;;;;;;4.13;0.70;;;25.40;99.90;;;;;;4974607;28;20363;-49
2022/06/26 03:50:50;;;;;;;2.78;0.60;;;25.30;99.90;;;;;;4974355;28;20051;-49
2022/06/26 03:53:17;;;;;;;4.22;1.10;;;25.30;99.90;;;;;;4974459;28;20105;-49
2022/06/26 03:55:43;;;;;;;3.43;1.23;;;25.30;99.90;;;;;;4974198;28;20034;-49
2022/06/26 03:58:09;;;;;;;2.95;1.30;;;25.20;99.90;;;;;;4956918;28;20050;-49
2022/06/26 04:00:35;;;;;;;2.15;0.65;;;25.20;99.90;;;;;;4990538;23;20050;-59
2022/06/26 04:03:03;;;;;;;2.60;1.00;;;25.20;99.90;;;;;;4974307;28;20085;-58
2022/06/26 04:05:30;;;;;;;2.33;0.90;;;25.20;99.90;;;;;;4974033;28;20384;-57
2022/06/26 04:07:55;;;;;;;1.15;0.65;;;25.20;99.90;;;;;;4974279;28;20054;-58
2022/06/26 04:10:21;;;;;;;4.40;1.27;;;25.10;99.90;;;;;;4973965;28;20046;-57
2022/06/26 04:12:47;;;;;;;4.13;1.02;;;24.90;99.90;;;;;;4974084;28;20023;-58
2022/06/26 04:15:13;;;;;;;3.67;1.00;;;24.60;99.90;;;;;;4973971;28;20081;-58
2022/06/26 04:17:39;;;;;;;7.10;1.90;;;24.50;99.90;;;;;;4973858;28;20480;-58
2022/06/26 04:20:05;;;;;;;1.80;0.95;;;24.50;99.90;;;;;;4973774;28;20038;-58
2022/06/26 04:22:31;;;;;;;4.63;1.00;;;24.40;99.90;;;;;;4973768;28;20503;-57
2022/06/26 04:24:57;;;;;;;4.43;1.42;;;24.30;99.90;;;;;;4973908;28;20019;-56
2022/06/26 04:27:23;;;;;;;8.35;1.10;;;24.50;99.90;;;;;;4972690;28;20022;-56
2022/06/26 04:29:48;;;;;;;8.35;1.20;;;24.50;99.90;;;;;;4973534;28;20508;-56
2022/06/26 04:32:14;;;;;;;1.35;0.65;;;24.50;99.90;;;;;;4973561;28;20023;-56
2022/06/26 04:34:40;;;;;;;2.28;1.40;;;24.50;99.90;;;;;;4956329;28;20030;-56
2022/06/26 04:37:06;;;;;;;1.73;0.90;;;24.50;99.90;;;;;;4956185;28;20051;-56
2022/06/26 04:39:31;;;;;;;2.75;0.63;;;24.50;99.90;;;;;;4973290;28;20093;-57
2022/06/26 04:41:57;;;;;;;2.60;0.80;;;24.60;99.90;;;;;;4973547;28;20019;-58
2022/06/26 04:44:23;;;;;;;1.85;0.70;;;24.70;99.90;;;;;;4973317;28;20073;-56
2022/06/26 04:46:49;;;;;;;2.85;0.80;;;24.60;99.90;;;;;;4973357;28;20065;-59
2022/06/26 04:49:15;;;;;;;0.80;0.50;;;24.60;99.90;;;;;;4973235;28;20023;-56
2022/06/26 04:51:41;;;;;;;0.65;0.65;;;24.60;99.90;;;;;;4973143;28;20027;-56
2022/06/26 04:54:08;;;;;;;5.05;0.80;;;24.60;99.90;;;;;;4973254;28;20477;-56
2022/06/26 04:56:34;;;;;;;0.98;0.65;;;24.60;99.90;;;;;;4973095;28;20027;-59
2022/06/26 04:59:01;;;;;;;0.98;0.70;;;24.70;99.90;;;;;;4973146;28;20503;-58
2022/06/26 05:01:27;;;;;;;3.22;0.88;;;24.60;99.90;;;;;;4973075;28;20048;-59
2022/06/26 05:03:54;;;;;;;1.63;0.65;;;24.70;99.90;;;;;;4972950;28;20027;-58
2022/06/26 05:06:20;;;;;;;3.00;0.80;;;24.70;99.90;;;;;;4973104;28;20023;-58
2022/06/26 05:08:46;;;;;;;3.10;1.08;;;24.60;99.90;;;;;;4955712;28;20027;-59
2022/06/26 05:11:12;;;;;;;1.75;0.70;;;24.60;99.90;;;;;;4972802;28;20045;-59
2022/06/26 05:13:38;;;;;;;5.45;0.88;;;24.50;99.90;;;;;;4972821;28;20108;-61
2022/06/26 05:16:04;;;;;;;4.00;1.30;;;24.60;99.90;;;;;;4972792;28;20365;-60
2022/06/26 05:18:30;;;;;;;5.00;0.80;;;24.60;99.90;;;;;;4972973;28;20034;-59
2022/06/26 05:20:56;;;;;;;3.50;0.68;;;24.50;99.90;;;;;;4972857;28;20499;-60
2022/06/26 05:23:22;;;;;;;1.20;0.60;;;24.60;99.90;;;;;;4972537;28;20133;-56
2022/06/26 05:25:48;;;;;;;1.88;0.85;;;24.60;99.90;;;;;;4972399;28;20507;-56
2022/06/26 05:28:13;;;;;;;4.82;1.80;;;24.60;99.90;;;;;;4972654;28;20436;-57
2022/06/26 05:30:39;;;;;;;3.75;1.80;;;24.60;99.90;;;;;;4972547;28;20062;-57
2022/06/26 05:33:05;;;;;;;5.28;2.30;;;24.50;99.90;;;;;;4972578;28;20027;-57
2022/06/26 05:35:31;;;;;;;4.00;1.30;;;24.50;99.90;;;;;;4972677;28;20023;-57
2022/06/26 05:37:57;;;;;;;3.50;1.30;;;24.60;99.90;;;;;;4972239;28;20042;-57
2022/06/26 05:40:23;;;;;;;2.42;1.00;;;24.50;99.90;;;;;;4972383;28;20035;-57
2022/06/26 05:42:50;;;;;;;4.13;2.40;;;24.50;99.90;;;;;;4972646;28;20066;-56
2022/06/26 05:45:16;;;;;;;5.72;2.15;;;24.50;99.90;;;;;;4972346;28;20027;-57
2022/06/26 05:47:42;;;;;;;8.52;2.30;;;24.60;99.90;;;;;;4972365;28;20107;-57
2022/06/26 05:50:08;;;;;;;2.13;1.45;;;24.70;99.90;;;;;;4972436;28;20057;-58
2022/06/26 05:52:33;;;;;;;4.68;2.30;;;24.80;99.90;;;;;;4972381;28;20088;-58
2022/06/26 05:54:59;;;;;;;10.85;2.13;;;25.00;99.90;;;;;;4972700;28;20030;-58
2022/06/26 05:57:25;;;;;;;3.92;2.10;;;25.10;99.90;;;;;;4972033;28;20035;-57
2022/06/26 05:59:51;;;;;;;4.40;2.15;;;25.20;99.90;;;;;;4972088;28;20058;-58
2022/06/26 06:02:17;;;;;;;5.15;2.00;;;25.20;99.90;;;;;;4955023;28;20027;-57
2022/06/26 06:04:42;;;;;;;6.95;2.45;;;25.30;99.90;;;;;;4972307;28;20038;-58
2022/06/26 06:07:08;;;;;;;6.95;2.13;;;25.30;99.90;;;;;;4972188;28;20127;-58
2022/06/26 06:09:34;;;;;;;5.60;1.90;;;25.40;99.90;;;;;;4972088;28;20448;-59
2022/06/26 06:12:00;;;;;;;4.38;2.63;;;25.40;99.90;;;;;;4955068;28;20099;-58
2022/06/26 06:14:26;;;;;;;5.18;3.28;;;25.50;99.90;;;;;;4971017;28;20027;-59
2022/06/26 06:16:52;;;;;;;4.03;1.90;;;25.50;99.90;;;;;;4972374;28;20121;-59
2022/06/26 06:19:18;;;;;;;3.60;1.67;;;25.50;99.90;;;;;;4972342;28;20810;-60
2022/06/26 06:21:43;;;;;;;3.67;2.20;;;25.50;99.90;;;;;;4954721;28;20027;-59
2022/06/26 06:24:09;;;;;;;3.92;1.52;;;25.50;99.90;;;;;;4972039;28;20026;-59
2022/06/26 06:26:35;;;;;;;2.90;1.90;;;25.50;99.90;;;;;;4972228;28;20046;-59
2022/06/26 06:29:01;;;;;;;3.58;1.27;;;25.60;99.90;;;;;;4971018;28;20063;-59
2022/06/26 06:31:27;;;;;;;2.60;1.65;;;25.60;99.90;;;;;;4954730;28;20058;-59
2022/06/26 06:33:53;;;;;;;6.15;2.40;;;25.60;99.90;;;;;;4972048;28;20031;-59
2022/06/26 06:36:18;;;;;;;4.20;1.75;;;25.70;99.90;;;;;;4971935;28;20030;-59
2022/06/26 06:38:44;;;;;;;4.00;1.58;;;25.70;99.90;;;;;;4972119;28;20106;-59
2022/06/26 06:41:10;;;;;;;5.80;2.08;;;25.70;99.90;;;;;;4971937;28;20101;-58
2022/06/26 06:43:36;;;;;;;3.88;2.10;;;25.70;99.90;;;;;;4972071;28;20054;-59
2022/06/26 06:46:02;;;;;;;3.95;1.98;;;25.70;99.90;;;;;;4972083;28;20073;-58
2022/06/26 06:48:28;;;;;;;3.83;2.00;;;25.80;99.90;;;;;;4954540;28;20023;-58
2022/06/26 06:50:54;;;;;;;3.80;2.03;;;25.80;99.90;;;;;;4974185;28;20030;-58
2022/06/26 06:53:20;;;;;;;3.17;1.88;;;25.80;99.90;;;;;;4975613;28;20054;-58
2022/06/26 06:55:46;;;;;;;2.17;1.40;;;25.90;99.90;;;;;;4975381;28;20034;-58
2022/06/26 06:58:12;;;;;;;4.60;2.28;;;25.90;99.90;;;;;;4975230;28;20456;-57
2022/06/26 07:00:38;;;;;;;4.15;1.73;;;25.90;99.90;;;;;;4975133;28;20047;-57
2022/06/26 07:03:05;;;;;;;4.43;1.83;;;26.00;99.90;;;;;;4975355;28;20051;-59
2022/06/26 07:05:32;;;;;;;3.72;2.00;;;26.00;99.90;;;;;;4975266;28;20019;-59
2022/06/26 07:07:58;;;;;;;6.97;2.95;;;26.00;99.90;;;;;;4975114;28;20026;-58
2022/06/26 07:10:24;;;;;;;6.28;2.17;;;26.10;99.90;;;;;;4975167;28;20054;-57
2022/06/26 07:12:53;;;;;;;8.90;2.05;;;26.00;99.90;;;;;;4975210;28;20027;-58
2022/06/26 07:15:20;;;;;;;4.78;1.52;;;25.80;99.90;;;;;;4975027;28;20058;-58
2022/06/26 07:17:46;;;;;;;8.55;1.73;;;25.60;99.90;;;;;;4974960;28;20117;-58
2022/06/26 07:20:12;;;;;;;6.05;1.98;;;25.50;99.90;;;;;;4975106;28;20080;-57
2022/06/26 07:22:38;;;;;;;7.85;1.80;;;25.50;99.90;;;;;;4975026;28;20333;-57
2022/06/26 07:25:04;;;;;;;8.48;2.05;;;25.40;99.90;;;;;;4975093;28;20022;-58
2022/06/26 07:27:30;;;;;;;9.40;2.53;;;25.30;99.90;;;;;;4974908;28;20437;-58
2022/06/26 07:29:55;;;;;;;5.90;1.77;;;25.20;99.90;;;;;;4974643;28;20158;-57
2022/06/26 07:32:21;;;;;;;7.00;2.47;;;25.20;99.90;;;;;;4974730;28;20070;-57
2022/06/26 07:34:47;;;;;;;9.68;1.90;;;25.20;99.90;;;;;;4974519;28;20030;-57
2022/06/26 07:37:12;;;;;;;12.95;2.17;;;25.10;99.90;;;;;;4974939;28;20038;-57
2022/06/26 07:39:38;;;;;;;6.93;2.20;;;25.10;99.90;;;;;;4974683;28;20037;-57
2022/06/26 07:42:04;;;;;;;5.03;1.75;;;25.20;99.90;;;;;;4974854;28;20031;-57
2022/06/26 07:44:31;;;;;;;8.02;1.70;;;25.20;99.90;;;;;;4974583;28;20035;-57
2022/06/26 07:46:57;;;;;;;6.55;1.92;;;25.10;99.90;;;;;;4974455;28;20027;-57
2022/06/26 07:49:23;;;;;;;7.38;2.22;;;25.20;99.90;;;;;;4974401;28;20102;-57
2022/06/26 07:51:50;;;;;;;9.57;1.90;;;25.20;99.90;;;;;;4974634;28;20023;-57
2022/06/26 07:54:16;;;;;;;6.53;1.77;;;25.20;99.90;;;;;;4974220;28;20031;-57
2022/06/26 07:56:42;;;;;;;7.80;2.20;;;25.20;99.90;;;;;;4956796;28;20553;-56
2022/06/26 07:59:08;;;;;;;5.70;1.83;;;25.10;99.90;;;;;;4956728;28;20484;-60
2022/06/26 08:01:34;;;;;;;10.02;1.90;;;25.30;99.90;;;;;;4974186;28;20047;-60
2022/06/26 08:04:01;;;;;;;5.13;1.73;;;25.30;99.90;;;;;;4974319;28;20035;-59
2022/06/26 08:06:29;;;;;;;7.35;1.98;;;25.30;99.90;;;;;;4975688;28;20504;-59
2022/06/26 08:08:56;;;;;;;3.88;1.45;;;25.20;99.90;;;;;;4975296;28;20035;-59
2022/06/26 08:11:22;;;;;;;5.80;2.17;;;25.20;99.90;;;;;;4975086;28;20023;-59
2022/06/26 08:13:48;;;;;;;5.80;1.90;;;25.20;99.90;;;;;;4974296;28;20388;-59
2022/06/26 08:16:15;;;;;;;3.45;1.77;;;25.10;99.90;;;;;;4974098;28;20022;-61
2022/06/26 08:18:41;;;;;;;6.47;1.67;;;25.20;99.90;;;;;;4974189;28;20039;-61
2022/06/26 08:23:53;;;;;;;6.05;1.83;;;25.10;99.90;;;;;;4973861;28;20041;-61
2022/06/26 08:26:18;;;;;;;7.70;2.13;;;25.20;99.90;;;;;;4973965;28;20023;-61
2022/06/26 08:28:44;;;;;;;9.18;1.90;;;25.20;99.90;;;;;;4973667;28;20479;-60
2022/06/26 08:31:10;;;;;;;6.20;2.05;;;25.20;99.90;;;;;;4973961;28;20030;-60
2022/06/26 08:33:36;;;;;;;6.78;2.25;;;25.30;99.90;;;;;;4973818;28;20420;-57
2022/06/26 08:36:04;;;;;;;7.30;2.38;;;25.30;99.90;;;;;;4973597;28;20038;-58
2022/06/26 08:38:30;;;;;;;5.53;1.83;;;25.30;99.90;;;;;;4973439;28;20049;-57
2022/06/26 08:40:59;;;;;;;7.57;3.22;;;25.30;99.90;;;;;;4973422;28;20093;-57
2022/06/26 08:43:25;;;;;;;6.85;2.47;;;25.40;99.90;;;;;;4973493;28;20034;-57
2022/06/26 08:45:54;;;;;;;7.85;1.77;;;25.40;99.90;;;;;;4973251;28;20077;-57
2022/06/26 08:48:26;;;;;;;7.05;1.92;;;25.30;99.90;;;;;;4956646;28;20041;-57
2022/06/26 08:50:52;;;;;;;10.15;2.65;;;25.40;99.90;;;;;;4973286;28;20023;-57
2022/06/26 08:53:20;;;;;;;10.07;2.10;;;25.40;99.90;;;;;;4973020;28;20385;-57
2022/06/26 08:55:46;;;;;;;10.20;2.78;;;25.30;99.90;;;;;;4973001;28;20037;-58
2022/06/26 08:58:11;;;;;;;7.55;2.22;;;25.30;99.90;;;;;;4973245;28;20042;-58
2022/06/26 09:00:37;;;;;;;12.40;2.75;;;25.30;99.90;;;;;;4973140;28;20374;-58
2022/06/26 09:03:03;;;;;;;9.23;2.63;;;25.30;99.90;;;;;;4972997;28;20041;-58
2022/06/26 09:05:29;;;;;;;7.45;2.42;;;25.20;99.90;;;;;;4973200;28;20027;-58
2022/06/26 09:07:58;;;;;;;11.32;4.03;;;25.20;99.90;;;;;;4973228;28;20429;-58
2022/06/26 09:10:29;;;;;;;12.15;3.20;;;25.20;99.90;;;;;;4973031;28;20529;-58
2022/06/26 09:12:56;;;;;;;9.25;2.70;;;25.20;99.90;;;;;;4972739;28;20097;-57
2022/06/26 09:15:24;;;;;;;11.85;2.97;;;25.20;99.90;;;;;;4972965;28;20023;-57
2022/06/26 09:18:01;;;;;;;13.63;2.92;;;25.20;99.90;;;;;;4972659;28;20043;-57
2022/06/26 09:20:27;;;;;;;14.52;3.15;;;25.10;99.90;;;;;;4972906;28;20034;-57
2022/06/26 09:22:54;;;;;;;9.77;2.53;;;25.10;99.90;;;;;;4972604;28;20054;-57
2022/06/26 09:25:20;;;;;;;10.13;2.53;;;25.20;99.90;;;;;;4955378;28;20031;-59
2022/06/26 09:27:46;;;;;;;8.50;3.13;;;25.20;99.90;;;;;;4972617;28;20038;-58
2022/06/26 09:30:12;;;;;;;10.20;3.83;;;25.20;99.90;;;;;;4972496;28;20453;-57
2022/06/26 09:32:38;;;;;;;12.10;3.65;;;25.30;99.90;;;;;;4971311;28;20034;-57
2022/06/26 09:35:03;;;;;;;16.08;3.35;;;25.20;99.90;;;;;;4972560;28;20022;-57
2022/06/26 09:37:37;;;;;;;9.05;3.30;;;25.10;99.90;;;;;;4972619;28;20037;-57
2022/06/26 09:40:04;;;;;;;16.02;6.40;;;25.10;99.90;;;;;;4972481;28;20082;-57
2022/06/26 09:42:33;;;;;;;;;;;25.00;99.90;;;;;;4973165;28;20033;-58
2022/06/26 09:45:01;;;;;;;20.15;8.57;;;25.00;99.90;;;;;;4972761;28;19910;-58
2022/06/26 09:47:29;;;;;;;15.70;6.15;;;24.90;99.90;;;;;;4955526;28;20034;-58
2022/06/26 09:49:58;;;;;;;14.10;6.55;;;24.90;99.90;;;;;;4972257;28;20049;-58
2022/06/26 09:52:26;;;;;;;15.65;5.07;;;25.00;99.90;;;;;;4972242;28;20161;-58
2022/06/26 09:54:53;;;;;;;16.88;4.60;;;25.00;99.90;;;;;;4972183;28;20038;-57
2022/06/26 09:57:19;;;;;;;15.15;4.15;;;25.00;99.90;;;;;;4972002;28;20038;-57
2022/06/26 09:59:46;;;;;;;12.75;3.60;;;24.90;99.90;;;;;;4971899;28;20043;-58
2022/06/26 10:07:49;;;;;;;11.55;3.25;;;25.10;99.90;;;;;;4972094;28;20061;-58
2022/06/26 10:10:18;;;;;;;9.77;3.88;;;25.10;99.90;;;;;;4972234;28;20396;-57
2022/06/26 10:12:47;;;;;;;16.65;4.35;;;25.20;99.90;;;;;;4971867;28;20039;-56
2022/06/26 10:15:15;;;;;;;17.65;6.13;;;25.20;99.90;;;;;;4971793;28;20037;-56
2022/06/26 10:17:51;;;;;;;19.55;11.65;;;25.20;99.90;;;;;;4971815;28;20113;-56
2022/06/26 10:20:19;;;;;;;14.10;7.60;;;25.20;99.90;;;;;;4971850;28;20431;-56
2022/06/26 10:22:45;;;;;;;12.52;7.28;;;25.20;99.90;;;;;;4971792;28;20477;-56
2022/06/26 10:25:27;;;;;;;20.25;7.15;;;25.10;99.90;;;;;;4973229;28;20035;-56
2022/06/26 10:27:53;;;;;;;24.70;7.13;;;25.30;99.90;;;;;;4975527;28;20475;-56
2022/06/26 10:30:27;;;;;;;14.02;4.65;;;25.30;99.90;;;;;;4975479;28;20031;-56
2022/06/26 10:33:20;;;;;;;16.33;4.35;;;25.30;99.90;;;;;;4975947;28;20485;-57
2022/06/26 10:35:47;;;;;;;13.27;4.35;;;25.30;99.90;;;;;;4975515;28;20063;-56
2022/06/26 10:38:24;;;;;;;28.92;5.53;;;25.40;99.90;;;;;;4975538;28;20507;-56
2022/06/26 10:43:56;;;;;;;18.75;7.35;;;25.40;99.90;;;;;;4975761;28;20115;-56
2022/06/26 10:46:22;;;;;;;18.55;9.15;;;25.30;99.90;;;;;;4975354;28;20038;-56
2022/06/26 10:48:53;;;;;;;17.70;6.47;;;25.30;99.90;;;;;;4975331;28;20027;-56
2022/06/26 10:51:28;;;;;;;20.20;6.85;;;25.30;99.90;;;;;;4975180;28;20089;-56
2022/06/26 10:53:54;;;;;;;20.88;6.88;;;25.30;99.90;;;;;;4975350;28;20022;-56
2022/06/26 10:56:21;;;;;;;18.42;5.85;;;25.40;99.90;;;;;;4975112;28;20030;-56
2022/06/26 10:58:48;;;;;;;19.65;5.35;;;25.30;99.90;;;;;;4975198;28;20170;-56
2022/06/26 11:01:16;;;;;;;15.50;4.55;;;25.40;99.90;;;;;;4974851;28;20047;-56
2022/06/26 11:03:43;;;;;;;12.20;5.88;;;25.30;99.90;;;;;;4957997;28;20496;-56
2022/06/26 11:06:15;;;;;;;20.30;9.20;;;25.40;99.90;;;;;;4975014;28;20437;-56
2022/06/26 11:08:48;;;;;;;14.18;4.63;;;25.50;99.90;;;;;;4974955;28;20097;-56
2022/06/26 11:11:33;;;;;;;14.38;4.85;;;25.60;99.90;;;;;;4974829;28;20023;-56
2022/06/26 11:14:06;;;;;;;13.45;4.03;;;25.70;99.90;;;;;;4974631;28;20101;-56
2022/06/26 11:16:35;;;;;;;13.57;3.92;;;25.80;99.90;;;;;;4957202;28;20031;-56
2022/06/26 11:19:05;;;;;;;11.57;3.90;;;25.80;99.90;;;;;;4974950;28;20473;-56
2022/06/26 11:21:31;;;;;;;8.65;3.08;;;25.70;99.90;;;;;;4957662;28;20023;-56
2022/06/26 11:23:58;;;;;;;19.02;3.85;;;25.70;99.90;;;;;;4974559;28;20041;-56
2022/06/26 11:26:23;;;;;;;9.65;3.80;;;25.80;99.90;;;;;;4974645;28;20118;-56
2022/06/26 11:29:00;;;;;;;16.63;5.82;;;25.70;99.90;;;;;;4974680;28;20459;-56
2022/06/26 11:31:30;;;;;;;20.17;7.18;;;25.70;99.90;;;;;;4974667;28;20390;-56
2022/06/26 11:34:10;;;;;;;17.50;6.43;;;25.70;99.90;;;;;;4974519;28;20038;-55
2022/06/26 11:36:36;;;;;;;13.70;4.60;;;25.70;99.90;;;;;;4974111;28;20039;-55
2022/06/26 11:39:02;;;;;;;18.77;6.30;;;25.70;99.90;;;;;;4974592;28;20062;-55
2022/06/26 11:41:28;;;;;;;15.18;4.32;;;25.70;99.90;;;;;;4974588;28;20023;-56
2022/06/26 11:43:56;;;;;;;10.32;3.83;;;25.70;99.90;;;;;;4973062;28;20030;-55
2022/06/26 11:46:22;;;;;;;;;;;25.60;99.90;;;;;;4975001;28;20039;-55
2022/06/26 11:48:52;;;;;;;9.55;4.38;;;25.60;99.90;;;;;;4974381;28;19906;-55
2022/06/26 11:51:18;;;;;;;15.35;4.82;;;25.60;99.90;;;;;;4974332;28;20078;-55
2022/06/26 11:53:47;;;;;;;15.23;5.60;;;25.70;99.90;;;;;;4974222;28;20095;-56
2022/06/26 11:56:24;;;;;;;10.02;5.43;;;25.70;99.90;;;;;;4974174;28;20477;-56
2022/06/26 11:58:51;;;;;;;;;;;25.70;99.90;;;;;;4974545;28;20038;-55
2022/06/26 12:01:18;;;;;;;12.65;4.35;;;25.80;99.90;;;;;;4974140;28;20471;-55
2022/06/26 12:03:47;;;;;;;16.70;4.72;;;25.80;99.90;;;;;;4974110;28;20023;-56
2022/06/26 12:06:34;;;;;;;15.45;6.57;;;25.90;99.90;;;;;;4974048;28;20077;-55
2022/06/26 12:09:21;;;;;;;21.70;6.45;;;25.90;99.90;;;;;;4973600;28;20488;-55
2022/06/26 12:11:49;;;;;;;17.23;7.97;;;26.00;99.90;;;;;;4973533;28;20093;-55
2022/06/26 12:14:17;;;;;;;22.70;7.53;;;26.00;99.90;;;;;;4973974;28;20034;-55
2022/06/26 12:16:48;;;;;;;16.15;7.47;;;26.00;99.90;;;;;;4956566;28;20030;-57
2022/06/26 12:19:14;;;;;;;18.08;8.55;;;26.10;99.90;;;;;;4974296;28;20071;-56
2022/06/26 12:21:40;;;;;;;15.95;5.50;;;26.10;99.90;;;;;;4973885;28;20098;-55
2022/06/26 12:24:13;;;;;;;24.52;6.32;;;26.10;99.90;;;;;;4974026;28;20504;-56
2022/06/26 12:26:41;;;;;;;12.52;4.40;;;26.10;99.90;;;;;;4973741;28;20035;-56
2022/06/26 12:29:11;;;;;;;13.70;4.03;;;26.10;99.90;;;;;;4973850;28;20401;-56
2022/06/26 12:31:38;;;;;;;13.02;4.22;;;26.10;99.90;;;;;;4973666;28;20031;-56
2022/06/26 12:34:04;;;;;;;15.48;4.35;;;26.20;99.90;;;;;;4973380;28;20031;-56
2022/06/26 12:36:31;;;;;;;21.23;4.70;;;26.10;99.90;;;;;;4973295;28;20030;-55
2022/06/26 12:38:57;;;;;;;10.70;4.45;;;26.00;99.90;;;;;;4973366;28;20041;-55
2022/06/26 12:41:23;;;;;;;17.25;4.43;;;26.00;99.90;;;;;;4973365;28;20062;-55
2022/06/26 12:43:51;;;;;;;13.75;5.78;;;26.10;99.90;;;;;;4973279;28;20022;-56
2022/06/26 12:46:17;;;;;;;15.48;4.60;;;26.10;99.90;;;;;;4973296;28;20050;-55
2022/06/26 12:48:43;;;;;;;22.83;4.95;;;26.00;99.90;;;;;;4972550;28;20090;-56
2022/06/26 12:51:09;;;;;;;13.93;5.35;;;25.90;99.90;;;;;;4973552;28;20027;-56
2022/06/26 12:53:35;;;;;;;22.40;4.75;;;25.90;99.90;;;;;;4973172;28;20377;-56
2022/06/26 12:56:02;;;;;;;18.67;8.40;;;26.00;99.90;;;;;;4973182;28;20035;-56
2022/06/26 12:58:28;;;;;;;13.40;5.27;;;26.00;99.90;;;;;;4973159;28;20041;-56
2022/06/26 13:00:54;;;;;;;11.20;4.80;;;26.00;99.90;;;;;;4973028;28;20276;-56
2022/06/26 13:03:21;;;;;;;13.65;4.93;;;26.10;99.90;;;;;;4972978;28;20026;-55